createdAt,value
2022-08-19T00:01:30.254Z,19.37
2022-08-19T00:03:59.015Z,19.33
2022-08-19T00:06:26.553Z,19.28
2022-08-19T00:08:53.438Z,19.23
2022-08-19T00:11:25.752Z,19.16
2022-08-19T00:13:53.613Z,19.18
2022-08-19T00:16:26.230Z,19.06
2022-08-19T00:18:56.586Z,19.05
2022-08-19T00:21:27.740Z,19.03
2022-08-19T00:24:00.708Z,19.02
2022-08-19T00:26:28.313Z,18.95
2022-08-19T00:28:55.774Z,18.97
2022-08-19T00:31:22.824Z,18.89
2022-08-19T00:33:52.776Z,18.88
2022-08-19T00:36:20.366Z,18.88
2022-08-19T00:38:47.550Z,18.80
2022-08-19T00:41:15.729Z,18.81
2022-08-19T00:43:42.610Z,18.79
2022-08-19T00:46:09.472Z,18.72
2022-08-19T00:48:37.570Z,18.74
2022-08-19T00:51:05.390Z,18.74
2022-08-19T00:53:32.717Z,18.62
2022-08-19T00:56:00.175Z,18.73
2022-08-19T00:58:29.263Z,18.76
2022-08-19T01:00:56.260Z,18.75
2022-08-19T01:03:23.187Z,18.75
2022-08-19T01:05:50.651Z,18.72
2022-08-19T01:08:18.136Z,18.61
2022-08-19T01:10:47.470Z,18.65
2022-08-19T01:13:18.617Z,18.64
2022-08-19T01:15:47.570Z,18.63
2022-08-19T01:18:15.344Z,18.59
2022-08-19T01:20:42.675Z,18.50
2022-08-19T01:23:09.728Z,18.40
2022-08-19T01:25:42.789Z,18.44
2022-08-19T01:28:10.786Z,18.45
2022-08-19T01:30:38.153Z,18.23
2022-08-19T01:33:06.993Z,18.33
2022-08-19T01:35:33.969Z,18.34
2022-08-19T01:38:02.747Z,18.29
2022-08-19T01:40:34.194Z,18.15
2022-08-19T01:43:01.191Z,18.08
2022-08-19T01:45:29.248Z,18.24
2022-08-19T01:48:01.740Z,18.21
2022-08-19T01:50:30.092Z,18.12
2022-08-19T01:53:05.912Z,18.26
2022-08-19T01:55:34.011Z,18.27
2022-08-19T01:58:01.617Z,18.26
2022-08-19T02:00:30.011Z,18.13
2022-08-19T02:02:57.435Z,18.16
2022-08-19T02:05:24.603Z,18.08
2022-08-19T02:07:51.450Z,18.14
2022-08-19T02:10:20.671Z,18.09
2022-08-19T02:12:47.712Z,18.05
2022-08-19T02:15:14.674Z,18.02
2022-08-19T02:17:42.556Z,18.01
2022-08-19T02:20:10.191Z,18.02
2022-08-19T02:22:37.097Z,18.04
2022-08-19T02:25:05.953Z,17.97
2022-08-19T02:27:34.431Z,17.98
2022-08-19T02:30:02.149Z,17.97
2022-08-19T02:32:29.006Z,17.95
2022-08-19T02:34:55.889Z,18.01
2022-08-19T02:37:41.032Z,18.16
2022-08-19T02:40:12.465Z,18.21
2022-08-19T02:42:40.641Z,18.17
2022-08-19T02:45:08.654Z,18.29
2022-08-19T02:47:35.548Z,18.32
2022-08-19T02:50:03.370Z,18.27
2022-08-19T02:52:30.208Z,18.26
2022-08-19T02:54:58.539Z,18.28
2022-08-19T02:57:25.609Z,18.10
2022-08-19T02:59:52.490Z,18.35
2022-08-19T03:02:19.355Z,18.37
2022-08-19T03:04:46.910Z,18.41
2022-08-19T03:07:16.832Z,18.48
2022-08-19T03:09:43.708Z,18.45
2022-08-19T03:12:10.687Z,18.55
2022-08-19T03:14:37.848Z,18.56
2022-08-19T03:17:05.552Z,18.49
2022-08-19T03:19:32.570Z,18.45
2022-08-19T03:21:59.753Z,18.43
2022-08-19T03:24:26.673Z,18.32
2022-08-19T03:26:58.697Z,18.24
2022-08-19T03:29:30.547Z,18.12
2022-08-19T03:31:58.621Z,18.23
2022-08-19T03:34:29.577Z,18.28
2022-08-19T03:36:57.607Z,18.19
2022-08-19T03:39:25.057Z,18.27
2022-08-19T03:42:31.845Z,18.25
2022-08-19T03:44:39.818Z,18.27
2022-08-19T03:47:06.811Z,18.26
2022-08-19T03:49:36.101Z,18.24
2022-08-19T03:52:06.592Z,18.28
2022-08-19T03:54:33.469Z,18.30
2022-08-19T03:57:00.471Z,18.31
2022-08-19T03:59:29.731Z,18.42
2022-08-19T04:01:58.088Z,18.42
2022-08-19T04:04:25.435Z,18.44
2022-08-19T04:06:56.285Z,18.57
2022-08-19T04:09:23.133Z,18.64
2022-08-19T04:11:54.732Z,18.75
2022-08-19T04:14:23.572Z,18.83
2022-08-19T04:16:50.653Z,18.90
2022-08-19T04:19:18.032Z,18.86
2022-08-19T04:21:46.231Z,18.86
2022-08-19T04:24:13.492Z,18.99
2022-08-19T04:26:40.390Z,19.12
2022-08-19T04:29:19.657Z,19.38
2022-08-19T04:31:46.832Z,19.50
2022-08-19T04:34:15.054Z,19.77
2022-08-19T04:36:42.870Z,19.95
2022-08-19T04:39:12.833Z,20.18
2022-08-19T04:41:58.283Z,20.49
2022-08-19T04:44:25.223Z,20.53
2022-08-19T04:46:52.386Z,20.77
2022-08-19T04:49:21.149Z,21.11
2022-08-19T04:51:51.088Z,21.62
2022-08-19T04:54:21.378Z,21.83
2022-08-19T04:57:07.140Z,21.69
2022-08-19T04:59:34.672Z,21.59
2022-08-19T05:02:01.610Z,21.59
2022-08-19T05:04:33.209Z,21.56
2022-08-19T05:07:01.100Z,21.50
2022-08-19T05:09:28.589Z,21.43
2022-08-19T05:12:15.543Z,21.40
2022-08-19T05:14:42.432Z,21.41
2022-08-19T05:17:26.524Z,21.75
2022-08-19T05:20:12.856Z,22.30
2022-08-19T05:22:39.990Z,22.79
2022-08-19T05:25:13.008Z,23.04
2022-08-19T05:27:40.549Z,22.99
2022-08-19T05:30:08.109Z,23.28
2022-08-19T05:32:35.102Z,23.50
2022-08-19T05:35:02.070Z,23.24
2022-08-19T05:37:29.096Z,23.09
2022-08-19T05:39:56.355Z,23.21
2022-08-19T05:42:24.149Z,23.38
2022-08-19T05:44:51.513Z,23.50
2022-08-19T05:47:20.839Z,23.65
2022-08-19T05:49:48.078Z,23.69
2022-08-19T05:52:18.636Z,23.77
2022-08-19T05:54:50.939Z,23.84
2022-08-19T05:57:18.368Z,24.31
2022-08-19T05:59:47.335Z,24.67
2022-08-19T06:02:15.188Z,25.30
2022-08-19T06:04:44.070Z,25.81
2022-08-19T06:07:12.875Z,25.52
2022-08-19T06:09:40.671Z,25.31
2022-08-19T06:12:08.096Z,25.01
2022-08-19T06:14:40.423Z,25.42
2022-08-19T06:17:09.382Z,25.85
2022-08-19T06:19:40.752Z,26.00
2022-08-19T06:22:08.639Z,26.12
2022-08-19T06:24:36.405Z,26.24
2022-08-19T06:27:03.758Z,26.78
2022-08-19T06:29:31.242Z,27.30
2022-08-19T06:31:59.497Z,27.53
2022-08-19T06:34:28.428Z,27.73
2022-08-19T06:36:55.589Z,28.07
2022-08-19T06:39:25.275Z,28.18
2022-08-19T06:41:56.797Z,28.64
2022-08-19T06:44:27.855Z,28.73
2022-08-19T06:46:55.613Z,29.11
2022-08-19T06:49:24.252Z,29.30
2022-08-19T06:51:51.981Z,29.12
2022-08-19T06:54:20.921Z,29.09
2022-08-19T06:56:47.984Z,29.33
2022-08-19T06:59:20.538Z,29.22
2022-08-19T07:01:53.315Z,29.42
2022-08-19T07:04:24.248Z,29.83
2022-08-19T07:06:55.388Z,29.09
2022-08-19T07:09:22.838Z,29.77
2022-08-19T07:11:52.731Z,29.79
2022-08-19T07:14:21.234Z,30.01
2022-08-19T07:16:50.403Z,29.79
2022-08-19T07:19:19.432Z,30.00
2022-08-19T07:21:51.077Z,29.66
2022-08-19T07:24:19.117Z,30.22
2022-08-19T07:26:46.588Z,30.26
2022-08-19T07:29:19.798Z,30.54
2022-08-19T07:31:47.594Z,30.98
2022-08-19T07:34:20.499Z,31.18
2022-08-19T07:36:48.390Z,31.60
2022-08-19T07:39:38.915Z,32.17
2022-08-19T07:42:11.466Z,32.58
2022-08-19T07:47:08.356Z,32.92
2022-08-19T07:49:55.467Z,33.14
2022-08-19T07:52:22.579Z,33.15
2022-08-19T07:54:50.925Z,33.13
2022-08-19T07:57:20.053Z,32.78
2022-08-19T07:59:47.087Z,33.37
2022-08-19T08:02:13.933Z,33.82
2022-08-19T08:04:59.385Z,32.99
2022-08-19T08:07:46.258Z,33.53
2022-08-19T08:10:21.143Z,33.53
2022-08-19T08:12:52.621Z,33.10
2022-08-19T08:15:41.339Z,32.86
2022-08-19T08:18:08.948Z,32.62
2022-08-19T08:20:36.070Z,32.79
2022-08-19T08:23:21.290Z,32.79
2022-08-19T08:25:49.483Z,33.20
2022-08-19T08:28:17.715Z,32.77
2022-08-19T08:30:46.759Z,32.50
2022-08-19T08:35:43.322Z,33.21
2022-08-19T08:38:10.106Z,33.36
2022-08-19T08:40:42.926Z,34.14
2022-08-19T08:43:30.633Z,34.59
2022-08-19T08:46:16.368Z,34.58
2022-08-19T08:49:09.919Z,33.68
2022-08-19T08:52:06.258Z,33.91
2022-08-19T08:54:48.866Z,34.50
2022-08-19T08:57:30.565Z,34.20
2022-08-19T09:00:15.357Z,34.85
2022-08-19T09:02:43.268Z,35.50
2022-08-19T09:05:16.835Z,35.08
2022-08-19T09:08:03.679Z,35.04
2022-08-19T09:10:35.245Z,34.78
2022-08-19T09:13:37.173Z,34.07
2022-08-19T09:16:27.685Z,34.22
2022-08-19T09:19:02.036Z,33.67
2022-08-19T09:21:33.191Z,35.06
2022-08-19T09:24:00.438Z,35.24
2022-08-19T09:26:47.201Z,35.64
2022-08-19T09:29:16.047Z,36.21
2022-08-19T09:31:44.544Z,36.59
2022-08-19T09:34:21.283Z,37.02
2022-08-19T09:36:54.835Z,36.63
2022-08-19T09:39:21.868Z,36.25
2022-08-19T09:41:51.098Z,36.66
2022-08-19T09:44:18.390Z,35.98
2022-08-19T09:46:48.169Z,34.83
2022-08-19T09:49:18.582Z,35.07
2022-08-19T09:51:50.336Z,36.29
2022-08-19T09:54:22.472Z,37.03
2022-08-19T09:56:51.998Z,37.58
2022-08-19T09:59:19.426Z,37.79
2022-08-19T10:01:46.438Z,37.96
2022-08-19T10:04:20.102Z,35.71
2022-08-19T10:06:51.846Z,36.47
2022-08-19T10:09:34.129Z,36.66
2022-08-19T10:12:02.597Z,38.07
2022-08-19T10:14:29.885Z,37.18
2022-08-19T10:16:59.109Z,34.86
2022-08-19T10:19:26.740Z,33.33
2022-08-19T10:21:54.471Z,34.57
2022-08-19T10:24:29.038Z,34.85
2022-08-19T10:26:58.968Z,35.24
2022-08-19T10:29:31.907Z,34.48
2022-08-19T10:32:02.898Z,35.66
2022-08-19T10:34:30.508Z,34.86
2022-08-19T10:37:00.886Z,34.85
2022-08-19T10:39:32.677Z,35.06
2022-08-19T10:42:11.793Z,34.93
2022-08-19T10:44:38.797Z,34.94
2022-08-19T10:47:24.466Z,35.29
2022-08-19T10:50:14.445Z,36.95
2022-08-19T10:52:49.009Z,37.61
2022-08-19T10:55:36.294Z,37.64
2022-08-19T10:58:03.191Z,36.17
2022-08-19T11:00:32.088Z,36.30
2022-08-19T11:02:58.943Z,37.21
2022-08-19T11:05:25.795Z,36.91
2022-08-19T11:07:53.209Z,37.50
2022-08-19T11:10:22.481Z,38.06
2022-08-19T11:12:49.742Z,38.41
2022-08-19T11:15:16.727Z,38.91
2022-08-19T11:17:44.761Z,38.40
2022-08-19T11:20:13.241Z,38.42
2022-08-19T11:22:41.585Z,38.92
2022-08-19T11:25:10.251Z,38.11
2022-08-19T11:27:44.232Z,38.62
2022-08-19T11:30:13.152Z,38.04
2022-08-19T11:32:45.693Z,38.01
2022-08-19T11:35:15.515Z,38.51
2022-08-19T11:37:42.393Z,38.54
2022-08-19T11:40:10.152Z,37.97
2022-08-19T11:42:55.434Z,37.73
2022-08-19T11:45:22.922Z,35.86
2022-08-19T11:47:49.815Z,35.78
2022-08-19T11:50:17.327Z,36.73
2022-08-19T11:52:45.388Z,36.48
2022-08-19T11:55:13.496Z,37.35
2022-08-19T11:57:42.151Z,38.07
2022-08-19T12:00:10.680Z,37.73
2022-08-19T12:02:37.717Z,37.64
2022-08-19T12:05:07.899Z,38.06
2022-08-19T12:07:37.268Z,38.48
2022-08-19T12:10:04.389Z,38.32
2022-08-19T12:12:31.247Z,38.03
2022-08-19T12:14:59.431Z,36.37
2022-08-19T12:17:29.771Z,36.52
2022-08-19T12:19:56.589Z,37.26
2022-08-19T12:22:23.652Z,37.83
2022-08-19T12:24:51.873Z,37.79
2022-08-19T12:27:32.023Z,37.10
2022-08-19T12:30:07.559Z,36.92
2022-08-19T12:32:34.712Z,36.71
2022-08-19T12:35:02.241Z,35.26
2022-08-19T12:37:29.135Z,35.44
2022-08-19T12:39:56.041Z,36.65
2022-08-19T12:42:23.628Z,36.68
2022-08-19T12:44:50.910Z,36.31
2022-08-19T12:47:18.107Z,36.29
2022-08-19T12:49:55.059Z,35.95
2022-08-19T12:52:25.871Z,36.32
2022-08-19T12:54:54.370Z,36.56
2022-08-19T12:57:23.224Z,34.83
2022-08-19T12:59:59.438Z,33.90
2022-08-19T13:02:26.297Z,34.09
2022-08-19T13:04:53.192Z,34.77
2022-08-19T13:07:20.031Z,36.24
2022-08-19T13:09:46.889Z,36.68
2022-08-19T13:12:14.129Z,36.39
2022-08-19T13:14:41.503Z,36.14
2022-08-19T13:17:09.337Z,36.37
2022-08-19T13:19:37.810Z,36.57
2022-08-19T13:22:04.802Z,36.37
2022-08-19T13:24:43.922Z,35.20
2022-08-19T13:27:13.413Z,34.98
2022-08-19T13:30:00.095Z,36.36
2022-08-19T13:32:45.271Z,37.15
2022-08-19T13:35:16.666Z,37.17
2022-08-19T13:37:44.307Z,37.39
2022-08-19T13:40:16.322Z,37.65
2022-08-19T13:42:44.787Z,37.63
2022-08-19T13:45:12.728Z,35.90
2022-08-19T13:47:48.602Z,36.20
2022-08-19T13:50:18.244Z,35.66
2022-08-19T13:52:45.179Z,35.27
2022-08-19T13:55:12.713Z,35.69
2022-08-19T13:57:43.013Z,35.90
2022-08-19T14:00:12.070Z,34.95
2022-08-19T14:02:39.988Z,35.14
2022-08-19T14:05:08.131Z,35.34
2022-08-19T14:07:35.013Z,36.07
2022-08-19T14:10:01.909Z,35.25
2022-08-19T14:12:29.172Z,34.59
2022-08-19T14:14:56.376Z,35.29
2022-08-19T14:17:23.270Z,35.81
2022-08-19T14:19:50.176Z,36.10
2022-08-19T14:22:22.158Z,35.87
2022-08-19T14:24:49.499Z,35.87
2022-08-19T14:27:16.359Z,36.05
2022-08-19T14:29:43.308Z,35.06
2022-08-19T14:32:11.078Z,34.10
2022-08-19T14:34:46.756Z,32.84
2022-08-19T14:37:17.608Z,32.27
2022-08-19T14:39:47.954Z,32.02
2022-08-19T14:42:17.536Z,32.45
2022-08-19T14:44:44.436Z,32.37
2022-08-19T14:47:11.476Z,32.38
2022-08-19T14:49:43.003Z,32.21
2022-08-19T14:52:12.689Z,32.70
2022-08-19T14:54:39.548Z,32.66
2022-08-19T14:57:06.468Z,32.32
2022-08-19T14:59:33.310Z,32.22
2022-08-19T15:02:20.149Z,32.31
2022-08-19T15:04:47.659Z,32.26
2022-08-19T15:07:28.922Z,31.96
2022-08-19T15:09:56.637Z,31.68
2022-08-19T15:12:23.621Z,31.27
2022-08-19T15:14:52.957Z,31.25
2022-08-19T15:17:25.825Z,31.12
2022-08-19T15:20:08.970Z,30.91
2022-08-19T15:22:36.840Z,30.83
2022-08-19T15:25:05.092Z,30.56
2022-08-19T15:27:33.095Z,30.55
2022-08-19T15:30:01.199Z,30.46
2022-08-19T15:32:29.072Z,30.32
2022-08-19T15:34:56.136Z,30.12
2022-08-19T15:37:24.093Z,29.99
2022-08-19T15:39:51.701Z,29.98
2022-08-19T15:42:29.768Z,29.83
2022-08-19T15:45:00.709Z,29.76
2022-08-19T15:47:34.674Z,29.78
2022-08-19T15:50:11.334Z,29.68
2022-08-19T15:52:49.405Z,29.92
2022-08-19T15:55:33.426Z,29.88
2022-08-19T15:58:28.869Z,29.61
2022-08-19T16:01:23.697Z,29.64
2022-08-19T16:04:13.711Z,29.68
2022-08-19T16:06:49.472Z,29.69
2022-08-19T16:09:17.002Z,29.55
2022-08-19T16:11:46.370Z,29.49
2022-08-19T16:14:17.048Z,29.49
2022-08-19T16:16:46.827Z,29.53
2022-08-19T16:19:15.871Z,29.34
2022-08-19T16:21:44.397Z,29.31
2022-08-19T16:24:13.235Z,29.33
2022-08-19T16:26:40.691Z,29.21
2022-08-19T16:29:12.154Z,29.08
2022-08-19T16:31:41.473Z,29.11
2022-08-19T16:34:09.713Z,29.19
2022-08-19T16:36:36.566Z,29.13
2022-08-19T16:39:03.929Z,29.15
2022-08-19T16:41:30.829Z,29.09
2022-08-19T16:43:57.778Z,29.10
2022-08-19T16:46:25.311Z,28.95
2022-08-19T16:48:54.246Z,28.95
2022-08-19T16:51:22.838Z,28.89
2022-08-19T16:53:53.066Z,28.76
2022-08-19T16:56:21.280Z,28.75
2022-08-19T16:58:50.214Z,28.70
2022-08-19T17:01:17.285Z,28.71
2022-08-19T17:03:44.379Z,28.58
2022-08-19T17:06:15.938Z,28.62
2022-08-19T17:08:48.844Z,28.54
2022-08-19T17:11:18.517Z,28.43
2022-08-19T17:13:47.670Z,28.36
2022-08-19T17:16:15.911Z,28.09
2022-08-19T17:18:42.788Z,28.13
2022-08-19T17:21:09.630Z,27.91
2022-08-19T17:23:36.735Z,27.78
2022-08-19T17:26:15.872Z,27.66
2022-08-19T17:28:51.829Z,27.57
2022-08-19T17:31:21.555Z,27.52
2022-08-19T17:33:49.081Z,27.38
2022-08-19T17:36:26.379Z,27.25
2022-08-19T17:38:55.405Z,27.08
2022-08-19T17:41:24.257Z,26.89
2022-08-19T17:43:51.589Z,26.81
2022-08-19T17:46:19.494Z,26.75
2022-08-19T17:48:52.294Z,26.59
2022-08-19T17:51:24.633Z,26.35
2022-08-19T17:53:52.319Z,26.33
2022-08-19T17:56:19.216Z,26.22
2022-08-19T17:58:54.378Z,26.18
2022-08-19T18:01:32.729Z,26.10
2022-08-19T18:04:11.174Z,26.17
2022-08-19T18:06:38.150Z,26.08
2022-08-19T18:09:05.892Z,26.07
2022-08-19T18:11:33.115Z,26.05
2022-08-19T18:14:00.067Z,25.96
2022-08-19T18:16:27.012Z,26.00
2022-08-19T18:18:54.750Z,25.89
2022-08-19T18:21:22.212Z,25.84
2022-08-19T18:23:49.049Z,25.89
2022-08-19T18:26:15.930Z,25.91
2022-08-19T18:28:49.424Z,26.19
2022-08-19T18:31:17.233Z,26.16
2022-08-19T18:33:44.990Z,26.23
2022-08-19T18:36:12.101Z,26.26
2022-08-19T18:38:57.298Z,26.22
2022-08-19T18:41:43.391Z,26.31
2022-08-19T18:44:29.056Z,26.46
2022-08-19T18:47:14.235Z,26.42
2022-08-19T18:49:41.125Z,26.56
2022-08-19T18:52:07.992Z,26.60
2022-08-19T18:54:35.780Z,26.54
2022-08-19T18:57:05.676Z,26.57
2022-08-19T18:59:32.931Z,26.59
2022-08-19T19:01:59.917Z,26.59
2022-08-19T19:04:34.470Z,26.60
2022-08-19T19:07:01.513Z,26.60
2022-08-19T19:09:28.511Z,26.61
2022-08-19T19:11:58.213Z,26.66
2022-08-19T19:14:48.132Z,26.52
2022-08-19T19:17:15.913Z,26.47
2022-08-19T19:19:43.005Z,26.34
2022-08-19T19:22:11.750Z,26.38
2022-08-19T19:24:39.513Z,26.30
2022-08-19T19:27:08.383Z,26.45
2022-08-19T19:29:36.664Z,26.40
2022-08-19T19:32:09.294Z,26.28
2022-08-19T19:34:38.170Z,26.35
2022-08-19T19:37:05.100Z,26.39
2022-08-19T19:39:45.063Z,26.42
2022-08-19T19:42:20.456Z,26.39
2022-08-19T19:44:53.932Z,26.42
2022-08-19T19:47:24.745Z,26.29
2022-08-19T19:52:40.055Z,26.09
2022-08-19T19:55:07.508Z,25.99
2022-08-19T19:57:34.353Z,25.94
2022-08-19T20:00:01.313Z,25.90
2022-08-19T20:02:28.190Z,25.84
2022-08-19T20:04:57.234Z,25.73
2022-08-19T20:07:44.028Z,25.67
2022-08-19T20:10:10.857Z,25.61
2022-08-19T20:12:39.221Z,25.55
2022-08-19T20:15:06.896Z,25.58
2022-08-19T20:17:33.775Z,25.56
2022-08-19T20:20:00.703Z,25.57
2022-08-19T20:22:27.816Z,25.51
2022-08-19T20:25:01.338Z,25.59
2022-08-19T20:27:31.143Z,25.59
2022-08-19T20:30:03.789Z,25.57
2022-08-19T20:32:30.677Z,25.57
2022-08-19T20:35:01.131Z,25.53
2022-08-19T20:37:28.608Z,25.40
2022-08-19T20:39:55.535Z,25.32
2022-08-19T20:42:22.788Z,25.36
2022-08-19T20:44:49.852Z,25.20
2022-08-19T20:47:16.777Z,25.16
2022-08-19T20:49:43.641Z,25.23
2022-08-19T20:52:11.015Z,25.22
2022-08-19T20:54:37.939Z,25.16
2022-08-19T20:57:05.532Z,25.18
2022-08-19T20:59:32.468Z,25.06
2022-08-19T21:01:59.470Z,24.89
2022-08-19T21:04:26.913Z,24.73
2022-08-19T21:06:54.833Z,24.55
2022-08-19T21:09:21.710Z,24.50
2022-08-19T21:11:48.590Z,24.47
2022-08-19T21:14:15.662Z,24.37
2022-08-19T21:16:42.533Z,24.22
2022-08-19T21:19:09.416Z,24.13
2022-08-19T21:21:36.279Z,24.25
2022-08-19T21:24:03.411Z,24.22
2022-08-19T21:26:30.317Z,24.17
2022-08-19T21:28:57.134Z,24.04
2022-08-19T21:31:24.027Z,23.98
2022-08-19T21:33:50.892Z,23.93
2022-08-19T21:36:17.721Z,23.96
2022-08-19T21:38:44.531Z,23.93
2022-08-19T21:41:11.394Z,23.91
2022-08-19T21:43:38.393Z,23.96
2022-08-19T21:46:05.632Z,24.08
2022-08-19T21:48:32.949Z,24.15
2022-08-19T21:50:59.808Z,24.23
2022-08-19T21:53:34.003Z,24.26
2022-08-19T21:56:02.569Z,24.35
2022-08-19T21:58:30.511Z,24.48
2022-08-19T22:01:01.742Z,24.44
2022-08-19T22:03:29.168Z,24.45
2022-08-19T22:05:55.971Z,24.27
2022-08-19T22:08:22.796Z,24.37
2022-08-19T22:10:49.926Z,24.45
2022-08-19T22:13:18.385Z,24.48
2022-08-19T22:15:48.854Z,24.39
2022-08-19T22:18:17.885Z,24.45
2022-08-19T22:20:45.120Z,24.31
2022-08-19T22:23:11.970Z,24.36
2022-08-19T22:25:40.674Z,24.40
2022-08-19T22:28:10.999Z,24.47
2022-08-19T22:30:41.800Z,24.48
2022-08-19T22:33:11.641Z,24.44
2022-08-19T22:35:39.011Z,24.38
2022-08-19T22:38:07.263Z,24.27
2022-08-19T22:40:36.651Z,24.43
2022-08-19T22:43:17.765Z,24.45
2022-08-19T22:45:44.910Z,24.45
2022-08-19T22:48:12.853Z,24.48
2022-08-19T22:50:40.315Z,24.39
2022-08-19T22:53:07.530Z,24.33
2022-08-19T22:55:34.912Z,24.20
2022-08-19T22:58:01.796Z,24.03
2022-08-19T23:00:28.893Z,23.91
2022-08-19T23:02:56.269Z,23.83
2022-08-19T23:05:24.750Z,23.69
2022-08-19T23:07:52.682Z,23.71
2022-08-19T23:10:26.769Z,23.58
2022-08-19T23:12:56.408Z,23.41
2022-08-19T23:15:25.917Z,23.27
2022-08-19T23:17:54.081Z,23.16
2022-08-19T23:20:21.559Z,23.04
2022-08-19T23:22:52.595Z,22.87
2022-08-19T23:25:21.889Z,22.65
2022-08-19T23:28:07.608Z,22.81
2022-08-19T23:30:37.291Z,22.75
2022-08-19T23:33:13.349Z,22.67
2022-08-19T23:35:41.785Z,22.53
2022-08-19T23:38:09.068Z,22.58
2022-08-19T23:40:36.778Z,22.49
2022-08-19T23:43:07.937Z,22.48
2022-08-19T23:45:38.310Z,22.55
2022-08-19T23:48:06.516Z,22.55
2022-08-19T23:50:34.069Z,22.68
2022-08-19T23:53:00.974Z,22.84
2022-08-19T23:55:29.970Z,22.96
2022-08-19T23:57:56.929Z,23.03
